首页
METAR-TAF:

METAR-TAF

机场 :

Bullhead City, 亞利桑那州, 美国

纬度: 35-09-27N, 经度: 114-33-34W, 海拔: 212米

当前天气观测

该预报发布于8分钟前的05:55 UTC
风速3节,风向西南
温度 15°C
湿度 82%
气压 1018 hPa
能見度: 16.1公里
阴天层高于3500英尺

METAR: KIFP 080555Z AUTO 23003KT 10SM OVC035 15/12 A3007 RMK AO2

时间: 23:03 (06:03 UTC)

预报

该预报发布于23分钟前的05:40 UTC
预报有效从08日的 06点(UTC)到 09日的 06点(UTC)
风速6节,风向南转南东
能見度: 10公里
散云层高于7000英尺
多云层高于20000英尺
从 08日的 0900点(UTC)
风速9节,风向
能見度: 10公里
散云层高于3000英尺
多云层高于5000英尺
阴天层高于20000英尺
附近有阵雨

TAF: KIFP 080540Z 0806/0906 15006KT P6SM SCT070 BKN200 FM080900 18009KT P6SM VCSH SCT030 BKN050 OVC200

超过4000个机场的气象观测和天气预报(METAR&TAF报告)。

可查询的气象台以黄色和红色小点在地图上表示。

将鼠标移到小点上方,可查看气象台名称。

然后点击查看天气观测和预报。

如需切换地图:点击带黑十字的绿色按钮放大地图;点击带横线的绿色按钮缩小地图;或者点击绿色箭头查看邻近地区的地图。


METAR-TAF: